sensor_id;sensor_type;location;lat;lon;timestamp;P1;durP1;ratioP1;P2;durP2;ratioP2
74656;SDS011;63185;45.642;13.764;2024-01-10T00:01:23;29.20;;;12.48;;
74656;SDS011;63185;45.642;13.764;2024-01-10T00:03:52;29.25;;;12.63;;
74656;SDS011;63185;45.642;13.764;2024-01-10T00:06:20;28.20;;;11.75;;
74656;SDS011;63185;45.642;13.764;2024-01-10T00:08:46;29.45;;;12.68;;
74656;SDS011;63185;45.642;13.764;2024-01-10T00:11:12;24.10;;;11.50;;
74656;SDS011;63185;45.642;13.764;2024-01-10T00:13:38;26.08;;;11.65;;
74656;SDS011;63185;45.642;13.764;2024-01-10T00:16:03;25.48;;;12.05;;
74656;SDS011;63185;45.642;13.764;2024-01-10T00:18:30;25.88;;;10.95;;
74656;SDS011;63185;45.642;13.764;2024-01-10T00:20:55;28.00;;;11.85;;
74656;SDS011;63185;45.642;13.764;2024-01-10T00:23:22;25.98;;;10.77;;
74656;SDS011;63185;45.642;13.764;2024-01-10T00:25:48;25.75;;;11.55;;
74656;SDS011;63185;45.642;13.764;2024-01-10T00:28:14;26.15;;;12.00;;
74656;SDS011;63185;45.642;13.764;2024-01-10T00:30:43;28.70;;;12.60;;
74656;SDS011;63185;45.642;13.764;2024-01-10T00:33:10;27.73;;;11.85;;
74656;SDS011;63185;45.642;13.764;2024-01-10T00:35:36;25.60;;;11.48;;
74656;SDS011;63185;45.642;13.764;2024-01-10T00:38:02;27.08;;;11.93;;
74656;SDS011;63185;45.642;13.764;2024-01-10T00:40:28;26.55;;;11.35;;
74656;SDS011;63185;45.642;13.764;2024-01-10T00:42:54;29.63;;;11.88;;
74656;SDS011;63185;45.642;13.764;2024-01-10T00:45:19;24.17;;;10.80;;
74656;SDS011;63185;45.642;13.764;2024-01-10T00:47:45;24.70;;;11.23;;
74656;SDS011;63185;45.642;13.764;2024-01-10T00:50:13;26.90;;;11.30;;
74656;SDS011;63185;45.642;13.764;2024-01-10T00:52:39;25.67;;;11.75;;
74656;SDS011;63185;45.642;13.764;2024-01-10T00:55:05;23.65;;;11.30;;
74656;SDS011;63185;45.642;13.764;2024-01-10T00:57:31;24.77;;;10.20;;
74656;SDS011;63185;45.642;13.764;2024-01-10T00:59:57;23.90;;;11.20;;
74656;SDS011;63185;45.642;13.764;2024-01-10T01:02:22;26.65;;;11.65;;
74656;SDS011;63185;45.642;13.764;2024-01-10T01:04:48;24.02;;;11.98;;
74656;SDS011;63185;45.642;13.764;2024-01-10T01:07:13;26.25;;;10.77;;
74656;SDS011;63185;45.642;13.764;2024-01-10T01:09:39;28.55;;;11.48;;
74656;SDS011;63185;45.642;13.764;2024-01-10T01:12:05;24.33;;;10.88;;
74656;SDS011;63185;45.642;13.764;2024-01-10T01:14:31;28.30;;;11.07;;
74656;SDS011;63185;45.642;13.764;2024-01-10T01:16:56;26.45;;;10.73;;
74656;SDS011;63185;45.642;13.764;2024-01-10T01:19:22;23.05;;;10.98;;
74656;SDS011;63185;45.642;13.764;2024-01-10T01:21:48;24.55;;;10.77;;
74656;SDS011;63185;45.642;13.764;2024-01-10T01:24:13;22.60;;;10.38;;
74656;SDS011;63185;45.642;13.764;2024-01-10T01:26:39;24.17;;;10.63;;
74656;SDS011;63185;45.642;13.764;2024-01-10T01:29:05;24.88;;;10.70;;
74656;SDS011;63185;45.642;13.764;2024-01-10T01:31:31;23.98;;;9.98;;
74656;SDS011;63185;45.642;13.764;2024-01-10T01:33:56;21.88;;;10.13;;
74656;SDS011;63185;45.642;13.764;2024-01-10T01:36:22;23.77;;;10.70;;
74656;SDS011;63185;45.642;13.764;2024-01-10T01:38:48;23.45;;;10.07;;
74656;SDS011;63185;45.642;13.764;2024-01-10T01:41:14;26.13;;;10.80;;
74656;SDS011;63185;45.642;13.764;2024-01-10T01:43:40;20.40;;;10.02;;
74656;SDS011;63185;45.642;13.764;2024-01-10T01:46:06;23.77;;;9.88;;
74656;SDS011;63185;45.642;13.764;2024-01-10T01:48:33;20.38;;;10.13;;
74656;SDS011;63185;45.642;13.764;2024-01-10T01:51:04;23.20;;;9.98;;
74656;SDS011;63185;45.642;13.764;2024-01-10T01:53:32;24.80;;;11.05;;
74656;SDS011;63185;45.642;13.764;2024-01-10T01:56:00;23.92;;;10.77;;
74656;SDS011;63185;45.642;13.764;2024-01-10T01:58:30;24.48;;;10.77;;
74656;SDS011;63185;45.642;13.764;2024-01-10T02:00:56;23.92;;;10.05;;
74656;SDS011;63185;45.642;13.764;2024-01-10T02:03:22;21.90;;;10.27;;
74656;SDS011;63185;45.642;13.764;2024-01-10T02:05:48;24.63;;;10.98;;
74656;SDS011;63185;45.642;13.764;2024-01-10T02:08:15;23.33;;;10.40;;
74656;SDS011;63185;45.642;13.764;2024-01-10T02:10:41;22.60;;;10.38;;
74656;SDS011;63185;45.642;13.764;2024-01-10T02:13:06;25.15;;;10.70;;
74656;SDS011;63185;45.642;13.764;2024-01-10T02:15:34;24.70;;;11.35;;
74656;SDS011;63185;45.642;13.764;2024-01-10T02:18:00;23.15;;;10.88;;
74656;SDS011;63185;45.642;13.764;2024-01-10T02:20:26;22.17;;;10.02;;
74656;SDS011;63185;45.642;13.764;2024-01-10T02:22:52;23.27;;;10.63;;
74656;SDS011;63185;45.642;13.764;2024-01-10T02:25:18;22.27;;;10.55;;
74656;SDS011;63185;45.642;13.764;2024-01-10T02:27:43;24.13;;;11.40;;
74656;SDS011;63185;45.642;13.764;2024-01-10T02:30:09;25.73;;;11.00;;
74656;SDS011;63185;45.642;13.764;2024-01-10T02:32:36;24.60;;;10.90;;
74656;SDS011;63185;45.642;13.764;2024-01-10T02:35:02;25.70;;;11.65;;
74656;SDS011;63185;45.642;13.764;2024-01-10T02:37:28;24.42;;;10.98;;
74656;SDS011;63185;45.642;13.764;2024-01-10T02:39:54;25.80;;;11.80;;
74656;SDS011;63185;45.642;13.764;2024-01-10T02:42:20;25.10;;;10.65;;
74656;SDS011;63185;45.642;13.764;2024-01-10T02:44:45;22.70;;;10.50;;
74656;SDS011;63185;45.642;13.764;2024-01-10T02:47:11;24.30;;;11.07;;
74656;SDS011;63185;45.642;13.764;2024-01-10T02:49:37;22.92;;;10.88;;
74656;SDS011;63185;45.642;13.764;2024-01-10T02:52:03;26.75;;;12.15;;
74656;SDS011;63185;45.642;13.764;2024-01-10T02:54:29;24.25;;;11.13;;
74656;SDS011;63185;45.642;13.764;2024-01-10T02:56:55;24.80;;;10.13;;
74656;SDS011;63185;45.642;13.764;2024-01-10T02:59:20;24.20;;;10.55;;
74656;SDS011;63185;45.642;13.764;2024-01-10T03:01:46;24.85;;;11.15;;
74656;SDS011;63185;45.642;13.764;2024-01-10T03:04:12;27.23;;;12.43;;
74656;SDS011;63185;45.642;13.764;2024-01-10T03:06:38;29.42;;;11.85;;
74656;SDS011;63185;45.642;13.764;2024-01-10T03:09:03;27.48;;;11.45;;
74656;SDS011;63185;45.642;13.764;2024-01-10T03:11:29;25.67;;;11.27;;
74656;SDS011;63185;45.642;13.764;2024-01-10T03:14:03;29.13;;;12.05;;
74656;SDS011;63185;45.642;13.764;2024-01-10T03:16:32;26.75;;;12.15;;
74656;SDS011;63185;45.642;13.764;2024-01-10T03:18:58;30.88;;;11.30;;
74656;SDS011;63185;45.642;13.764;2024-01-10T03:21:24;27.05;;;12.38;;
74656;SDS011;63185;45.642;13.764;2024-01-10T03:23:51;28.63;;;11.93;;
74656;SDS011;63185;45.642;13.764;2024-01-10T03:26:20;32.78;;;12.77;;
74656;SDS011;63185;45.642;13.764;2024-01-10T03:28:45;29.05;;;12.32;;
74656;SDS011;63185;45.642;13.764;2024-01-10T03:31:11;28.85;;;12.50;;
74656;SDS011;63185;45.642;13.764;2024-01-10T03:33:37;27.55;;;12.57;;
74656;SDS011;63185;45.642;13.764;2024-01-10T03:36:03;29.15;;;12.75;;
74656;SDS011;63185;45.642;13.764;2024-01-10T03:38:30;28.15;;;11.75;;
74656;SDS011;63185;45.642;13.764;2024-01-10T03:40:56;30.75;;;12.20;;
74656;SDS011;63185;45.642;13.764;2024-01-10T03:43:22;26.73;;;11.73;;
74656;SDS011;63185;45.642;13.764;2024-01-10T03:45:47;30.55;;;13.23;;
74656;SDS011;63185;45.642;13.764;2024-01-10T03:48:13;27.83;;;11.27;;
74656;SDS011;63185;45.642;13.764;2024-01-10T03:50:38;27.48;;;12.48;;
74656;SDS011;63185;45.642;13.764;2024-01-10T03:53:04;30.65;;;13.23;;
74656;SDS011;63185;45.642;13.764;2024-01-10T03:55:31;26.40;;;12.05;;
74656;SDS011;63185;45.642;13.764;2024-01-10T03:57:57;26.13;;;11.13;;
74656;SDS011;63185;45.642;13.764;2024-01-10T04:00:22;26.63;;;11.77;;
74656;SDS011;63185;45.642;13.764;2024-01-10T04:02:48;31.20;;;12.32;;
74656;SDS011;63185;45.642;13.764;2024-01-10T04:05:14;28.15;;;11.55;;
74656;SDS011;63185;45.642;13.764;2024-01-10T04:07:40;31.38;;;13.13;;
74656;SDS011;63185;45.642;13.764;2024-01-10T04:10:09;30.20;;;12.20;;
74656;SDS011;63185;45.642;13.764;2024-01-10T04:12:36;30.25;;;12.40;;
74656;SDS011;63185;45.642;13.764;2024-01-10T04:15:03;29.25;;;11.52;;
74656;SDS011;63185;45.642;13.764;2024-01-10T04:17:29;30.75;;;13.05;;
74656;SDS011;63185;45.642;13.764;2024-01-10T04:19:55;25.75;;;11.52;;
74656;SDS011;63185;45.642;13.764;2024-01-10T04:22:21;29.27;;;12.70;;
74656;SDS011;63185;45.642;13.764;2024-01-10T04:24:48;25.33;;;11.48;;
74656;SDS011;63185;45.642;13.764;2024-01-10T04:27:14;31.38;;;12.05;;
74656;SDS011;63185;45.642;13.764;2024-01-10T04:29:40;27.98;;;12.75;;
74656;SDS011;63185;45.642;13.764;2024-01-10T04:32:06;24.83;;;10.88;;
74656;SDS011;63185;45.642;13.764;2024-01-10T04:34:32;30.98;;;12.70;;
74656;SDS011;63185;45.642;13.764;2024-01-10T04:36:58;31.00;;;13.52;;
74656;SDS011;63185;45.642;13.764;2024-01-10T04:39:24;24.75;;;11.23;;
74656;SDS011;63185;45.642;13.764;2024-01-10T04:41:49;28.85;;;11.63;;
74656;SDS011;63185;45.642;13.764;2024-01-10T04:44:15;29.25;;;11.40;;
74656;SDS011;63185;45.642;13.764;2024-01-10T04:46:41;30.15;;;11.48;;
74656;SDS011;63185;45.642;13.764;2024-01-10T04:49:07;29.02;;;13.02;;
74656;SDS011;63185;45.642;13.764;2024-01-10T04:51:33;27.15;;;12.38;;
74656;SDS011;63185;45.642;13.764;2024-01-10T04:53:59;29.98;;;12.57;;
74656;SDS011;63185;45.642;13.764;2024-01-10T04:56:25;22.40;;;11.05;;
74656;SDS011;63185;45.642;13.764;2024-01-10T04:58:51;27.67;;;11.98;;
74656;SDS011;63185;45.642;13.764;2024-01-10T05:01:17;25.60;;;11.38;;
74656;SDS011;63185;45.642;13.764;2024-01-10T05:03:43;28.30;;;10.73;;
74656;SDS011;63185;45.642;13.764;2024-01-10T05:06:09;25.13;;;11.93;;
74656;SDS011;63185;45.642;13.764;2024-01-10T05:08:35;24.05;;;10.95;;
74656;SDS011;63185;45.642;13.764;2024-01-10T05:11:01;26.55;;;11.48;;
74656;SDS011;63185;45.642;13.764;2024-01-10T05:13:27;24.60;;;11.65;;
74656;SDS011;63185;45.642;13.764;2024-01-10T05:15:53;25.67;;;11.90;;
74656;SDS011;63185;45.642;13.764;2024-01-10T05:18:20;28.25;;;11.77;;
74656;SDS011;63185;45.642;13.764;2024-01-10T05:20:46;28.60;;;11.85;;
74656;SDS011;63185;45.642;13.764;2024-01-10T05:23:12;24.75;;;11.70;;
74656;SDS011;63185;45.642;13.764;2024-01-10T05:25:38;24.25;;;10.80;;
74656;SDS011;63185;45.642;13.764;2024-01-10T05:28:04;26.00;;;11.23;;
74656;SDS011;63185;45.642;13.764;2024-01-10T05:30:30;28.60;;;11.60;;
74656;SDS011;63185;45.642;13.764;2024-01-10T05:32:57;26.90;;;11.30;;
74656;SDS011;63185;45.642;13.764;2024-01-10T05:35:26;26.42;;;11.43;;
74656;SDS011;63185;45.642;13.764;2024-01-10T05:37:52;24.27;;;11.23;;
74656;SDS011;63185;45.642;13.764;2024-01-10T05:40:18;25.40;;;11.30;;
74656;SDS011;63185;45.642;13.764;2024-01-10T05:42:44;26.25;;;10.73;;
74656;SDS011;63185;45.642;13.764;2024-01-10T05:45:10;25.23;;;10.80;;
74656;SDS011;63185;45.642;13.764;2024-01-10T05:47:35;26.92;;;10.82;;
74656;SDS011;63185;45.642;13.764;2024-01-10T05:50:02;24.08;;;10.05;;
74656;SDS011;63185;45.642;13.764;2024-01-10T05:52:31;25.90;;;11.10;;
74656;SDS011;63185;45.642;13.764;2024-01-10T05:54:58;25.75;;;11.15;;
74656;SDS011;63185;45.642;13.764;2024-01-10T05:57:26;22.70;;;10.25;;
74656;SDS011;63185;45.642;13.764;2024-01-10T05:59:52;23.13;;;10.23;;
74656;SDS011;63185;45.642;13.764;2024-01-10T06:02:21;23.63;;;10.60;;
74656;SDS011;63185;45.642;13.764;2024-01-10T06:04:47;20.60;;;10.32;;
74656;SDS011;63185;45.642;13.764;2024-01-10T06:07:13;23.58;;;10.25;;
74656;SDS011;63185;45.642;13.764;2024-01-10T06:09:39;23.00;;;11.00;;
74656;SDS011;63185;45.642;13.764;2024-01-10T06:12:05;28.00;;;11.10;;
74656;SDS011;63185;45.642;13.764;2024-01-10T06:14:31;26.55;;;12.27;;
74656;SDS011;63185;45.642;13.764;2024-01-10T06:16:57;24.95;;;10.93;;
74656;SDS011;63185;45.642;13.764;2024-01-10T06:19:24;25.77;;;11.35;;
74656;SDS011;63185;45.642;13.764;2024-01-10T06:21:50;28.52;;;11.90;;
74656;SDS011;63185;45.642;13.764;2024-01-10T06:24:17;25.13;;;11.05;;
74656;SDS011;63185;45.642;13.764;2024-01-10T06:26:45;24.95;;;10.88;;
74656;SDS011;63185;45.642;13.764;2024-01-10T06:29:11;26.20;;;11.25;;
74656;SDS011;63185;45.642;13.764;2024-01-10T06:31:36;26.55;;;10.93;;
74656;SDS011;63185;45.642;13.764;2024-01-10T06:34:02;30.08;;;11.85;;
74656;SDS011;63185;45.642;13.764;2024-01-10T06:36:28;25.63;;;11.10;;
74656;SDS011;63185;45.642;13.764;2024-01-10T06:38:54;29.08;;;10.60;;
74656;SDS011;63185;45.642;13.764;2024-01-10T06:41:21;23.15;;;10.40;;
74656;SDS011;63185;45.642;13.764;2024-01-10T06:43:49;25.95;;;11.57;;
74656;SDS011;63185;45.642;13.764;2024-01-10T06:46:18;28.52;;;11.23;;
74656;SDS011;63185;45.642;13.764;2024-01-10T06:48:44;29.60;;;9.70;;
74656;SDS011;63185;45.642;13.764;2024-01-10T06:51:10;28.52;;;11.38;;
74656;SDS011;63185;45.642;13.764;2024-01-10T06:53:37;27.35;;;11.20;;
74656;SDS011;63185;45.642;13.764;2024-01-10T06:56:04;25.42;;;11.32;;
74656;SDS011;63185;45.642;13.764;2024-01-10T06:58:30;28.60;;;11.07;;
74656;SDS011;63185;45.642;13.764;2024-01-10T07:00:56;30.80;;;11.60;;
74656;SDS011;63185;45.642;13.764;2024-01-10T07:03:22;27.40;;;11.77;;
74656;SDS011;63185;45.642;13.764;2024-01-10T07:05:47;25.35;;;10.63;;
74656;SDS011;63185;45.642;13.764;2024-01-10T07:08:14;25.83;;;11.20;;
74656;SDS011;63185;45.642;13.764;2024-01-10T07:10:41;26.13;;;10.98;;
74656;SDS011;63185;45.642;13.764;2024-01-10T07:13:07;26.85;;;12.20;;
74656;SDS011;63185;45.642;13.764;2024-01-10T07:15:33;25.38;;;11.25;;
74656;SDS011;63185;45.642;13.764;2024-01-10T07:17:59;25.98;;;11.38;;
74656;SDS011;63185;45.642;13.764;2024-01-10T07:20:24;26.13;;;11.75;;
74656;SDS011;63185;45.642;13.764;2024-01-10T07:22:50;25.35;;;11.20;;
74656;SDS011;63185;45.642;13.764;2024-01-10T07:25:16;27.08;;;11.70;;
74656;SDS011;63185;45.642;13.764;2024-01-10T07:27:45;24.73;;;10.82;;
74656;SDS011;63185;45.642;13.764;2024-01-10T07:30:11;27.52;;;11.73;;
74656;SDS011;63185;45.642;13.764;2024-01-10T07:32:42;23.83;;;11.07;;
74656;SDS011;63185;45.642;13.764;2024-01-10T07:35:09;25.23;;;10.75;;
74656;SDS011;63185;45.642;13.764;2024-01-10T07:37:44;29.48;;;11.43;;
74656;SDS011;63185;45.642;13.764;2024-01-10T07:40:10;26.20;;;11.60;;
74656;SDS011;63185;45.642;13.764;2024-01-10T07:42:36;29.08;;;12.02;;
74656;SDS011;63185;45.642;13.764;2024-01-10T07:45:03;25.25;;;11.35;;
74656;SDS011;63185;45.642;13.764;2024-01-10T07:47:34;27.58;;;11.02;;
74656;SDS011;63185;45.642;13.764;2024-01-10T07:50:04;28.63;;;11.20;;
74656;SDS011;63185;45.642;13.764;2024-01-10T07:52:30;25.73;;;10.88;;
74656;SDS011;63185;45.642;13.764;2024-01-10T07:54:57;24.83;;;10.35;;
74656;SDS011;63185;45.642;13.764;2024-01-10T07:57:23;24.48;;;10.50;;
74656;SDS011;63185;45.642;13.764;2024-01-10T07:59:48;23.15;;;10.23;;
74656;SDS011;63185;45.642;13.764;2024-01-10T08:02:14;26.02;;;11.00;;
74656;SDS011;63185;45.642;13.764;2024-01-10T08:04:40;23.45;;;10.57;;
74656;SDS011;63185;45.642;13.764;2024-01-10T08:07:06;23.25;;;9.98;;
74656;SDS011;63185;45.642;13.764;2024-01-10T08:09:31;24.42;;;11.00;;
74656;SDS011;63185;45.642;13.764;2024-01-10T08:11:57;23.58;;;10.90;;
74656;SDS011;63185;45.642;13.764;2024-01-10T08:14:23;25.88;;;10.43;;
74656;SDS011;63185;45.642;13.764;2024-01-10T08:16:49;21.20;;;10.35;;
74656;SDS011;63185;45.642;13.764;2024-01-10T08:19:18;19.00;;;8.50;;
74656;SDS011;63185;45.642;13.764;2024-01-10T08:21:44;22.83;;;10.32;;
74656;SDS011;63185;45.642;13.764;2024-01-10T08:24:09;22.73;;;9.93;;
74656;SDS011;63185;45.642;13.764;2024-01-10T08:26:35;21.15;;;9.82;;
74656;SDS011;63185;45.642;13.764;2024-01-10T08:29:02;20.52;;;10.18;;
74656;SDS011;63185;45.642;13.764;2024-01-10T08:31:28;21.42;;;9.65;;
74656;SDS011;63185;45.642;13.764;2024-01-10T08:33:54;21.23;;;10.18;;
74656;SDS011;63185;45.642;13.764;2024-01-10T08:36:21;23.08;;;10.07;;
74656;SDS011;63185;45.642;13.764;2024-01-10T08:38:49;25.80;;;10.45;;
74656;SDS011;63185;45.642;13.764;2024-01-10T08:41:15;24.58;;;10.07;;
74656;SDS011;63185;45.642;13.764;2024-01-10T08:43:41;24.08;;;9.35;;
74656;SDS011;63185;45.642;13.764;2024-01-10T08:46:08;20.35;;;9.20;;
74656;SDS011;63185;45.642;13.764;2024-01-10T08:48:34;20.60;;;9.18;;
74656;SDS011;63185;45.642;13.764;2024-01-10T08:51:01;25.40;;;9.63;;
74656;SDS011;63185;45.642;13.764;2024-01-10T08:53:27;19.38;;;9.45;;
74656;SDS011;63185;45.642;13.764;2024-01-10T08:55:53;22.08;;;9.15;;
74656;SDS011;63185;45.642;13.764;2024-01-10T08:58:19;23.13;;;9.90;;
74656;SDS011;63185;45.642;13.764;2024-01-10T09:00:45;22.40;;;9.80;;
74656;SDS011;63185;45.642;13.764;2024-01-10T09:03:11;21.80;;;9.65;;
74656;SDS011;63185;45.642;13.764;2024-01-10T09:05:37;22.60;;;9.85;;
74656;SDS011;63185;45.642;13.764;2024-01-10T09:08:03;28.40;;;10.35;;
74656;SDS011;63185;45.642;13.764;2024-01-10T09:10:29;19.17;;;9.15;;
74656;SDS011;63185;45.642;13.764;2024-01-10T09:12:54;20.08;;;9.70;;
74656;SDS011;63185;45.642;13.764;2024-01-10T09:15:20;21.30;;;9.95;;
74656;SDS011;63185;45.642;13.764;2024-01-10T09:17:46;20.17;;;9.38;;
74656;SDS011;63185;45.642;13.764;2024-01-10T09:20:12;19.27;;;9.07;;
74656;SDS011;63185;45.642;13.764;2024-01-10T09:22:38;21.10;;;9.57;;
74656;SDS011;63185;45.642;13.764;2024-01-10T09:25:05;17.45;;;8.75;;
74656;SDS011;63185;45.642;13.764;2024-01-10T09:27:34;19.58;;;8.88;;
74656;SDS011;63185;45.642;13.764;2024-01-10T09:30:03;21.67;;;8.85;;
74656;SDS011;63185;45.642;13.764;2024-01-10T09:32:33;18.95;;;8.38;;
74656;SDS011;63185;45.642;13.764;2024-01-10T09:35:02;21.25;;;9.93;;
74656;SDS011;63185;45.642;13.764;2024-01-10T09:37:28;21.70;;;9.70;;
74656;SDS011;63185;45.642;13.764;2024-01-10T09:39:55;21.30;;;9.18;;
74656;SDS011;63185;45.642;13.764;2024-01-10T09:42:21;19.65;;;9.13;;
74656;SDS011;63185;45.642;13.764;2024-01-10T09:44:50;19.08;;;8.93;;
74656;SDS011;63185;45.642;13.764;2024-01-10T09:47:16;22.08;;;9.63;;
74656;SDS011;63185;45.642;13.764;2024-01-10T09:49:45;18.77;;;7.67;;
74656;SDS011;63185;45.642;13.764;2024-01-10T09:52:16;20.98;;;8.77;;
74656;SDS011;63185;45.642;13.764;2024-01-10T09:54:51;21.25;;;9.98;;
74656;SDS011;63185;45.642;13.764;2024-01-10T09:57:20;20.13;;;8.32;;
74656;SDS011;63185;45.642;13.764;2024-01-10T09:59:47;19.95;;;9.48;;
74656;SDS011;63185;45.642;13.764;2024-01-10T10:02:13;21.73;;;9.32;;
74656;SDS011;63185;45.642;13.764;2024-01-10T10:04:42;17.73;;;8.70;;
74656;SDS011;63185;45.642;13.764;2024-01-10T10:07:16;20.08;;;9.00;;
74656;SDS011;63185;45.642;13.764;2024-01-10T10:09:42;20.92;;;9.27;;
74656;SDS011;63185;45.642;13.764;2024-01-10T10:12:07;19.52;;;8.75;;
74656;SDS011;63185;45.642;13.764;2024-01-10T10:14:33;19.65;;;9.18;;
74656;SDS011;63185;45.642;13.764;2024-01-10T10:17:14;21.50;;;9.35;;
74656;SDS011;63185;45.642;13.764;2024-01-10T10:19:43;19.42;;;8.00;;
74656;SDS011;63185;45.642;13.764;2024-01-10T10:22:09;18.83;;;8.10;;
74656;SDS011;63185;45.642;13.764;2024-01-10T10:24:36;18.05;;;9.10;;
74656;SDS011;63185;45.642;13.764;2024-01-10T10:27:07;18.17;;;8.35;;
74656;SDS011;63185;45.642;13.764;2024-01-10T10:29:35;15.57;;;7.80;;
74656;SDS011;63185;45.642;13.764;2024-01-10T10:32:02;16.73;;;8.85;;
74656;SDS011;63185;45.642;13.764;2024-01-10T10:34:30;17.67;;;8.13;;
74656;SDS011;63185;45.642;13.764;2024-01-10T10:36:57;13.63;;;6.30;;
74656;SDS011;63185;45.642;13.764;2024-01-10T10:39:24;18.30;;;8.75;;
74656;SDS011;63185;45.642;13.764;2024-01-10T10:41:50;17.92;;;7.55;;
74656;SDS011;63185;45.642;13.764;2024-01-10T10:44:19;14.25;;;7.10;;
74656;SDS011;63185;45.642;13.764;2024-01-10T10:46:49;16.52;;;7.88;;
74656;SDS011;63185;45.642;13.764;2024-01-10T10:49:21;16.35;;;8.35;;
74656;SDS011;63185;45.642;13.764;2024-01-10T10:51:54;18.70;;;8.50;;
74656;SDS011;63185;45.642;13.764;2024-01-10T10:54:22;18.85;;;8.48;;
74656;SDS011;63185;45.642;13.764;2024-01-10T10:56:50;15.35;;;7.55;;
74656;SDS011;63185;45.642;13.764;2024-01-10T10:59:19;20.20;;;9.02;;
74656;SDS011;63185;45.642;13.764;2024-01-10T11:01:46;18.38;;;8.30;;
74656;SDS011;63185;45.642;13.764;2024-01-10T11:04:14;17.15;;;8.30;;
74656;SDS011;63185;45.642;13.764;2024-01-10T11:06:40;17.30;;;8.10;;
74656;SDS011;63185;45.642;13.764;2024-01-10T11:09:06;15.88;;;7.80;;
74656;SDS011;63185;45.642;13.764;2024-01-10T11:17:34;17.77;;;8.65;;
74656;SDS011;63185;45.642;13.764;2024-01-10T11:20:21;17.80;;;8.23;;
74656;SDS011;63185;45.642;13.764;2024-01-10T11:25:40;17.45;;;8.63;;
74656;SDS011;63185;45.642;13.764;2024-01-10T11:28:06;16.50;;;7.90;;
74656;SDS011;63185;45.642;13.764;2024-01-10T11:30:47;17.45;;;8.00;;
74656;SDS011;63185;45.642;13.764;2024-01-10T11:33:24;17.67;;;7.78;;
74656;SDS011;63185;45.642;13.764;2024-01-10T11:38:42;17.83;;;8.55;;
74656;SDS011;63185;45.642;13.764;2024-01-10T11:41:11;17.38;;;8.07;;
74656;SDS011;63185;45.642;13.764;2024-01-10T11:43:38;16.13;;;8.25;;
74656;SDS011;63185;45.642;13.764;2024-01-10T11:46:05;17.52;;;8.57;;
74656;SDS011;63185;45.642;13.764;2024-01-10T11:48:31;15.27;;;8.20;;
74656;SDS011;63185;45.642;13.764;2024-01-10T11:50:57;18.17;;;8.23;;
74656;SDS011;63185;45.642;13.764;2024-01-10T11:56:13;17.73;;;9.00;;
74656;SDS011;63185;45.642;13.764;2024-01-10T11:59:00;16.60;;;8.48;;
74656;SDS011;63185;45.642;13.764;2024-01-10T12:01:36;16.80;;;8.15;;
74656;SDS011;63185;45.642;13.764;2024-01-10T12:04:03;17.85;;;8.48;;
74656;SDS011;63185;45.642;13.764;2024-01-10T12:06:33;16.98;;;8.65;;
74656;SDS011;63185;45.642;13.764;2024-01-10T12:09:01;16.13;;;7.63;;
74656;SDS011;63185;45.642;13.764;2024-01-10T12:11:33;17.55;;;7.72;;
74656;SDS011;63185;45.642;13.764;2024-01-10T12:14:06;16.60;;;8.65;;
74656;SDS011;63185;45.642;13.764;2024-01-10T12:16:34;15.48;;;7.85;;
74656;SDS011;63185;45.642;13.764;2024-01-10T12:19:00;15.45;;;8.00;;
74656;SDS011;63185;45.642;13.764;2024-01-10T12:21:26;20.65;;;8.43;;
74656;SDS011;63185;45.642;13.764;2024-01-10T12:23:51;19.20;;;8.60;;
74656;SDS011;63185;45.642;13.764;2024-01-10T12:26:23;19.02;;;8.45;;
74656;SDS011;63185;45.642;13.764;2024-01-10T12:28:55;18.45;;;8.93;;
74656;SDS011;63185;45.642;13.764;2024-01-10T12:31:23;24.42;;;8.98;;
74656;SDS011;63185;45.642;13.764;2024-01-10T12:33:52;17.73;;;8.05;;
74656;SDS011;63185;45.642;13.764;2024-01-10T12:36:20;17.27;;;8.05;;
74656;SDS011;63185;45.642;13.764;2024-01-10T12:38:47;19.80;;;8.02;;
74656;SDS011;63185;45.642;13.764;2024-01-10T12:41:16;18.00;;;8.25;;
74656;SDS011;63185;45.642;13.764;2024-01-10T12:43:48;17.05;;;8.48;;
74656;SDS011;63185;45.642;13.764;2024-01-10T12:46:15;16.95;;;8.70;;
74656;SDS011;63185;45.642;13.764;2024-01-10T12:48:41;22.40;;;8.15;;
74656;SDS011;63185;45.642;13.764;2024-01-10T12:51:07;21.60;;;8.35;;
74656;SDS011;63185;45.642;13.764;2024-01-10T12:53:34;17.70;;;8.73;;
74656;SDS011;63185;45.642;13.764;2024-01-10T12:56:02;16.30;;;8.15;;
74656;SDS011;63185;45.642;13.764;2024-01-10T12:58:28;16.98;;;8.23;;
74656;SDS011;63185;45.642;13.764;2024-01-10T13:00:54;17.55;;;8.48;;
74656;SDS011;63185;45.642;13.764;2024-01-10T13:03:20;17.50;;;8.05;;
74656;SDS011;63185;45.642;13.764;2024-01-10T13:05:47;15.43;;;8.23;;
74656;SDS011;63185;45.642;13.764;2024-01-10T13:08:12;19.90;;;8.77;;
74656;SDS011;63185;45.642;13.764;2024-01-10T13:10:38;19.17;;;9.20;;
74656;SDS011;63185;45.642;13.764;2024-01-10T13:13:05;17.27;;;8.30;;
74656;SDS011;63185;45.642;13.764;2024-01-10T13:15:30;18.35;;;8.80;;
74656;SDS011;63185;45.642;13.764;2024-01-10T13:17:56;21.65;;;8.68;;
74656;SDS011;63185;45.642;13.764;2024-01-10T13:20:23;19.35;;;9.05;;
74656;SDS011;63185;45.642;13.764;2024-01-10T13:22:49;20.02;;;9.48;;
74656;SDS011;63185;45.642;13.764;2024-01-10T13:25:15;20.77;;;9.23;;
74656;SDS011;63185;45.642;13.764;2024-01-10T13:27:41;20.58;;;10.35;;
74656;SDS011;63185;45.642;13.764;2024-01-10T13:30:07;20.40;;;8.57;;
74656;SDS011;63185;45.642;13.764;2024-01-10T13:32:37;22.10;;;8.95;;
74656;SDS011;63185;45.642;13.764;2024-01-10T13:35:05;18.92;;;9.00;;
74656;SDS011;63185;45.642;13.764;2024-01-10T13:37:31;18.27;;;7.87;;
74656;SDS011;63185;45.642;13.764;2024-01-10T13:39:57;17.77;;;8.80;;
74656;SDS011;63185;45.642;13.764;2024-01-10T13:42:23;18.10;;;8.52;;
74656;SDS011;63185;45.642;13.764;2024-01-10T13:44:49;19.08;;;9.30;;
74656;SDS011;63185;45.642;13.764;2024-01-10T13:47:19;18.63;;;8.70;;
74656;SDS011;63185;45.642;13.764;2024-01-10T13:49:46;19.02;;;8.95;;
74656;SDS011;63185;45.642;13.764;2024-01-10T13:52:12;15.93;;;8.02;;
74656;SDS011;63185;45.642;13.764;2024-01-10T13:54:38;20.42;;;8.88;;
74656;SDS011;63185;45.642;13.764;2024-01-10T13:57:05;15.88;;;8.38;;
74656;SDS011;63185;45.642;13.764;2024-01-10T13:59:32;18.30;;;8.32;;
74656;SDS011;63185;45.642;13.764;2024-01-10T14:02:01;18.27;;;8.80;;
74656;SDS011;63185;45.642;13.764;2024-01-10T14:04:28;14.75;;;7.63;;
74656;SDS011;63185;45.642;13.764;2024-01-10T14:06:53;17.38;;;8.75;;
74656;SDS011;63185;45.642;13.764;2024-01-10T14:09:19;14.80;;;7.65;;
74656;SDS011;63185;45.642;13.764;2024-01-10T14:11:45;17.48;;;8.75;;
74656;SDS011;63185;45.642;13.764;2024-01-10T14:14:11;17.40;;;8.73;;
74656;SDS011;63185;45.642;13.764;2024-01-10T14:16:36;18.15;;;8.80;;
74656;SDS011;63185;45.642;13.764;2024-01-10T14:19:02;17.60;;;8.27;;
74656;SDS011;63185;45.642;13.764;2024-01-10T14:21:28;21.40;;;8.77;;
74656;SDS011;63185;45.642;13.764;2024-01-10T14:23:55;16.55;;;8.23;;
74656;SDS011;63185;45.642;13.764;2024-01-10T14:26:21;19.85;;;8.20;;